Time;durP1;ratioP1;P1;durP2;ratioP2;P2;SDS_P1;SDS_P2;PMS_P1;PMS_P2;Temp;Humidity;BMP_temperature;BMP_pressure;BME280_temperature;BME280_humidity;BME280_pressure;Samples;Min_cycle;Max_cycle;Signal;HPM_P1;HPM_P2
2021/12/31 00:02:22;;;;;;;7.50;2.33;;;15.10;75.40;;;;;;4881562;29;20071;-76
2021/12/31 00:04:50;;;;;;;13.77;2.80;;;15.00;75.30;;;;;;4883602;29;20109;-77
2021/12/31 00:07:16;;;;;;;11.82;2.97;;;15.00;75.30;;;;;;4883728;29;20057;-76
2021/12/31 00:09:42;;;;;;;11.63;2.63;;;15.00;75.40;;;;;;4866847;29;20053;-74
2021/12/31 00:12:08;;;;;;;10.10;2.67;;;15.00;75.40;;;;;;4867466;29;20056;-77
2021/12/31 00:14:35;;;;;;;12.02;2.17;;;15.00;75.30;;;;;;4883296;29;20061;-75
2021/12/31 00:17:01;;;;;;;9.95;2.45;;;15.00;75.30;;;;;;4883383;29;20061;-76
2021/12/31 00:19:30;;;;;;;11.13;2.72;;;15.00;75.40;;;;;;4866948;29;20049;-75
2021/12/31 00:21:57;;;;;;;12.95;2.80;;;14.90;75.30;;;;;;4882182;29;20044;-76
2021/12/31 00:24:25;;;;;;;18.02;3.25;;;15.00;75.50;;;;;;4883363;29;20061;-74
2021/12/31 00:26:51;;;;;;;10.63;3.47;;;15.00;75.40;;;;;;4883588;29;20346;-74
2021/12/31 00:29:17;;;;;;;11.75;2.63;;;14.90;75.40;;;;;;4882872;29;20185;-75
2021/12/31 00:31:43;;;;;;;12.38;3.08;;;14.90;75.50;;;;;;4882145;29;20083;-76
2021/12/31 00:34:08;;;;;;;14.30;2.85;;;14.90;75.60;;;;;;4882288;29;20339;-75
2021/12/31 00:36:42;;;;;;;10.45;2.70;;;14.90;75.60;;;;;;4882756;29;20201;-77
2021/12/31 00:39:08;;;;;;;8.55;2.47;;;14.90;75.50;;;;;;4882745;29;20049;-75
2021/12/31 00:41:34;;;;;;;14.43;2.83;;;14.90;75.50;;;;;;4882818;29;20049;-76
2021/12/31 00:44:00;;;;;;;8.93;2.72;;;15.00;75.40;;;;;;4882847;29;20076;-75
2021/12/31 00:46:25;;;;;;;11.30;2.75;;;15.00;75.40;;;;;;4866527;29;20097;-76
2021/12/31 00:48:51;;;;;;;13.80;2.92;;;15.00;75.30;;;;;;4850705;29;20068;-76
2021/12/31 00:51:17;;;;;;;14.00;2.88;;;15.00;75.40;;;;;;4882848;29;20086;-76
2021/12/31 00:53:42;;;;;;;12.93;3.22;;;15.00;75.40;;;;;;4882475;29;20041;-76
2021/12/31 00:56:08;;;;;;;15.00;2.83;;;15.00;75.30;;;;;;4882681;29;20453;-76
2021/12/31 00:58:34;;;;;;;10.20;3.00;;;15.00;75.40;;;;;;4866119;29;20442;-74
2021/12/31 01:00:59;;;;;;;10.50;2.67;;;14.90;75.30;;;;;;4881928;29;20156;-76
2021/12/31 01:03:25;;;;;;;11.23;2.92;;;14.90;75.40;;;;;;4881853;29;20036;-74
2021/12/31 01:05:51;;;;;;;10.88;2.90;;;14.90;75.50;;;;;;4865832;29;20403;-76
2021/12/31 01:08:16;;;;;;;13.00;3.20;;;14.90;75.40;;;;;;4882656;29;20132;-77
2021/12/31 01:10:42;;;;;;;9.80;2.95;;;14.90;75.50;;;;;;4866523;29;20480;-76
2021/12/31 01:13:13;;;;;;;13.00;2.85;;;14.90;75.50;;;;;;4882130;29;20461;-75
2021/12/31 01:15:43;;;;;;;11.70;2.80;;;14.90;75.50;;;;;;4883062;29;20056;-76
2021/12/31 01:20:35;;;;;;;11.70;2.83;;;14.90;75.60;;;;;;4881909;29;20057;-77
2021/12/31 01:23:01;;;;;;;14.13;3.20;;;14.90;75.60;;;;;;4881949;29;20044;-75
2021/12/31 01:25:27;;;;;;;13.35;3.42;;;14.90;75.60;;;;;;4882016;29;20059;-76
2021/12/31 01:27:53;;;;;;;13.07;3.38;;;14.80;75.60;;;;;;4881667;29;20056;-76
2021/12/31 01:30:19;;;;;;;11.88;3.38;;;14.90;75.60;;;;;;4866228;29;20053;-77
2021/12/31 01:32:45;;;;;;;12.18;3.00;;;14.90;75.80;;;;;;4881355;29;20048;-75
2021/12/31 01:35:12;;;;;;;11.63;3.63;;;14.80;75.80;;;;;;4882121;29;20155;-75
2021/12/31 01:37:39;;;;;;;12.70;3.33;;;14.80;75.80;;;;;;4881557;29;20251;-77
2021/12/31 01:40:06;;;;;;;9.88;2.92;;;14.80;75.90;;;;;;4881788;29;20064;-76
2021/12/31 01:42:33;;;;;;;12.40;2.63;;;14.80;75.90;;;;;;4881603;29;20056;-76
2021/12/31 01:45:16;;;;;;;12.00;3.30;;;14.80;75.90;;;;;;4865529;29;20092;-76
2021/12/31 01:47:55;;;;;;;10.27;3.03;;;14.80;75.90;;;;;;4881602;29;20057;-76
2021/12/31 01:50:29;;;;;;;13.05;3.15;;;14.80;76.00;;;;;;4881368;29;20473;-75
2021/12/31 01:52:55;;;;;;;10.35;2.75;;;14.80;76.00;;;;;;4881759;29;20472;-74
2021/12/31 01:55:23;;;;;;;12.65;3.20;;;14.70;76.00;;;;;;4882064;29;20045;-76
2021/12/31 01:57:50;;;;;;;11.50;2.55;;;14.80;76.10;;;;;;4881670;29;20053;-76
2021/12/31 02:00:15;;;;;;;11.13;2.70;;;14.70;76.10;;;;;;4881796;29;20056;-76
2021/12/31 02:02:46;;;;;;;8.57;2.70;;;14.70;76.00;;;;;;4880343;29;20060;-76
2021/12/31 02:05:12;;;;;;;12.13;2.75;;;14.80;76.10;;;;;;4881820;29;20056;-75
2021/12/31 02:07:39;;;;;;;11.18;2.75;;;14.80;76.10;;;;;;4881626;29;20057;-74
2021/12/31 02:10:06;;;;;;;10.30;2.42;;;14.80;76.10;;;;;;4865016;29;20120;-76
2021/12/31 02:12:32;;;;;;;11.25;2.65;;;14.80;76.10;;;;;;4881161;29;20053;-75
2021/12/31 02:14:59;;;;;;;8.40;2.42;;;14.80;76.10;;;;;;4880531;29;20215;-75
2021/12/31 02:17:24;;;;;;;13.52;3.25;;;14.70;76.00;;;;;;4865048;29;20445;-75
2021/12/31 02:20:06;;;;;;;10.13;2.42;;;14.80;76.20;;;;;;4881092;29;20045;-75
2021/12/31 02:22:39;;;;;;;10.85;2.72;;;14.80;76.00;;;;;;4881045;29;20055;-76
2021/12/31 02:25:08;;;;;;;12.07;2.70;;;14.80;76.10;;;;;;4881074;29;20041;-75
2021/12/31 02:27:39;;;;;;;12.50;2.53;;;14.80;76.10;;;;;;4881026;29;20061;-74
2021/12/31 02:30:08;;;;;;;11.00;2.45;;;14.80;76.20;;;;;;4881509;29;20088;-76
2021/12/31 02:32:34;;;;;;;11.57;2.85;;;14.80;76.10;;;;;;4881402;29;20067;-76
2021/12/31 02:35:00;;;;;;;11.65;2.90;;;14.80;76.20;;;;;;4864713;29;20128;-77
2021/12/31 02:37:26;;;;;;;11.95;2.67;;;14.80;76.20;;;;;;4881233;29;20064;-75
2021/12/31 02:39:52;;;;;;;11.18;2.90;;;14.80;76.20;;;;;;4881417;29;20045;-75
2021/12/31 02:42:18;;;;;;;14.70;2.92;;;14.80;76.30;;;;;;4881447;29;20061;-76
2021/12/31 02:44:43;;;;;;;9.77;3.00;;;14.70;76.20;;;;;;4882191;29;20041;-76
2021/12/31 02:47:09;;;;;;;8.48;2.63;;;14.70;76.30;;;;;;4885012;29;20110;-76
2021/12/31 02:49:41;;;;;;;13.32;2.97;;;14.70;76.30;;;;;;4884479;29;20189;-76
2021/12/31 02:52:11;;;;;;;12.27;2.40;;;14.70;76.30;;;;;;4883778;29;20061;-76
2021/12/31 02:54:40;;;;;;;12.75;2.97;;;14.80;76.40;;;;;;4884277;29;20063;-75
2021/12/31 02:57:06;;;;;;;8.32;2.33;;;14.70;76.30;;;;;;4885223;29;20053;-76
2021/12/31 02:59:34;;;;;;;9.48;2.55;;;14.70;76.40;;;;;;4868475;29;20049;-74
2021/12/31 03:02:03;;;;;;;12.25;2.55;;;14.70;76.30;;;;;;4884109;29;20132;-76
2021/12/31 03:04:29;;;;;;;9.20;2.72;;;14.70;76.40;;;;;;4868927;29;20049;-76
2021/12/31 03:06:57;;;;;;;11.13;2.67;;;14.70;76.30;;;;;;4884281;29;20060;-76
2021/12/31 03:09:24;;;;;;;11.27;3.20;;;14.70;76.40;;;;;;4884371;29;20053;-76
2021/12/31 03:11:56;;;;;;;9.40;2.35;;;14.70;76.30;;;;;;4868042;29;20129;-75
2021/12/31 03:14:22;;;;;;;10.40;2.65;;;14.70;76.40;;;;;;4883509;29;20049;-76
2021/12/31 03:16:48;;;;;;;11.27;3.05;;;14.70;76.40;;;;;;4884259;29;20056;-74
2021/12/31 03:19:15;;;;;;;9.13;2.13;;;14.70;76.40;;;;;;4868088;29;20059;-76
2021/12/31 03:21:41;;;;;;;13.88;3.28;;;14.70;76.40;;;;;;4884882;29;20172;-74
2021/12/31 03:24:07;;;;;;;9.85;2.75;;;14.70;76.40;;;;;;4883907;29;20480;-76
2021/12/31 03:26:34;;;;;;;13.30;2.58;;;14.70;76.40;;;;;;4884196;29;20061;-76
2021/12/31 03:29:00;;;;;;;13.38;3.10;;;14.70;76.40;;;;;;4867909;29;20057;-75
2021/12/31 03:31:27;;;;;;;12.77;2.42;;;14.70;76.50;;;;;;4884191;29;20489;-77
2021/12/31 03:33:53;;;;;;;10.68;2.78;;;14.60;76.40;;;;;;4883794;29;20067;-76
2021/12/31 03:36:19;;;;;;;9.82;2.47;;;14.70;76.40;;;;;;4884206;29;20163;-75
2021/12/31 03:38:45;;;;;;;8.48;2.38;;;14.70;76.30;;;;;;4868100;29;20052;-76
2021/12/31 03:41:11;;;;;;;7.40;2.10;;;14.70;76.40;;;;;;4884090;29;20045;-75
2021/12/31 03:43:37;;;;;;;14.13;2.85;;;14.70;76.30;;;;;;4883226;29;20119;-75
2021/12/31 03:46:03;;;;;;;10.27;2.50;;;14.70;76.30;;;;;;4865608;29;20061;-75
2021/12/31 03:48:29;;;;;;;12.40;2.92;;;14.70;76.30;;;;;;4872833;29;20129;-75
2021/12/31 03:50:55;;;;;;;9.90;2.97;;;14.70;76.30;;;;;;4859848;29;20062;-76
2021/12/31 03:53:21;;;;;;;8.02;2.38;;;14.70;76.30;;;;;;4846326;29;20130;-76
2021/12/31 03:55:47;;;;;;;7.53;2.35;;;14.70;76.30;;;;;;4829372;29;20061;-75
2021/12/31 03:58:14;;;;;;;9.43;2.47;;;14.70;76.40;;;;;;4846691;29;20130;-77
2021/12/31 04:00:39;;;;;;;10.00;2.13;;;14.70;76.40;;;;;;4830459;29;20087;-75
2021/12/31 04:03:10;;;;;;;10.60;2.15;;;14.70;76.30;;;;;;4859726;29;20053;-76
2021/12/31 04:05:37;;;;;;;12.18;2.53;;;14.70;76.30;;;;;;4864861;29;20370;-75
2021/12/31 04:08:03;;;;;;;9.27;2.63;;;14.70;76.20;;;;;;4864327;29;20061;-75
2021/12/31 04:10:29;;;;;;;8.30;2.13;;;14.70;76.30;;;;;;4864731;29;20348;-76
2021/12/31 04:12:55;;;;;;;8.65;2.42;;;14.70;76.10;;;;;;4864787;29;20060;-76
2021/12/31 04:15:22;;;;;;;10.57;2.80;;;14.70;75.90;;;;;;4864482;29;20060;-75
2021/12/31 04:17:47;;;;;;;10.98;2.47;;;14.70;76.00;;;;;;4864340;29;20049;-75
2021/12/31 04:20:32;;;;;;;10.23;2.42;;;14.70;75.90;;;;;;4848987;29;20053;-75
2021/12/31 04:23:00;;;;;;;11.38;2.70;;;14.70;76.00;;;;;;4864586;29;20056;-75
2021/12/31 04:25:26;;;;;;;9.65;2.60;;;14.70;76.10;;;;;;4848405;29;20068;-75
2021/12/31 04:27:52;;;;;;;10.93;2.70;;;14.70;76.10;;;;;;4864508;29;20120;-76
2021/12/31 04:30:18;;;;;;;8.23;2.13;;;14.70;76.20;;;;;;4864755;29;20064;-77
2021/12/31 04:32:44;;;;;;;8.25;2.38;;;14.70;76.10;;;;;;4848043;29;20057;-75
2021/12/31 04:35:11;;;;;;;8.43;2.33;;;14.70;76.00;;;;;;4848079;29;20474;-75
2021/12/31 04:37:39;;;;;;;13.23;2.58;;;14.70;76.20;;;;;;4864477;29;20061;-74
2021/12/31 04:40:09;;;;;;;8.40;2.05;;;14.70;76.70;;;;;;4864273;29;20061;-76
2021/12/31 04:42:35;;;;;;;10.90;2.67;;;14.70;76.20;;;;;;4864611;29;20129;-74
2021/12/31 04:45:01;;;;;;;10.23;2.53;;;14.70;76.20;;;;;;4848100;29;20546;-77
2021/12/31 04:47:27;;;;;;;7.00;1.55;;;14.60;76.20;;;;;;4847922;29;20081;-75
2021/12/31 04:49:53;;;;;;;9.85;2.15;;;14.60;76.80;;;;;;4864035;29;20092;-76
2021/12/31 04:52:18;;;;;;;6.30;1.52;;;14.60;76.80;;;;;;4879493;29;20135;-77
2021/12/31 04:54:44;;;;;;;10.52;2.20;;;14.70;76.30;;;;;;4882733;29;20104;-75
2021/12/31 04:57:10;;;;;;;9.80;2.33;;;14.70;76.20;;;;;;4882795;29;20096;-76
2021/12/31 04:59:35;;;;;;;9.82;2.15;;;14.70;76.10;;;;;;4882220;29;20053;-76
2021/12/31 05:02:01;;;;;;;9.30;2.20;;;14.70;76.20;;;;;;4880624;29;20041;-75
2021/12/31 05:04:27;;;;;;;9.10;2.15;;;14.60;76.10;;;;;;4882623;29;20048;-75
2021/12/31 05:06:52;;;;;;;7.85;2.15;;;14.70;76.10;;;;;;4881662;29;20113;-76
2021/12/31 05:09:18;;;;;;;7.25;1.88;;;14.60;76.20;;;;;;4882478;29;20357;-76
2021/12/31 05:11:44;;;;;;;6.47;2.15;;;14.70;76.30;;;;;;4864386;29;20041;-75
2021/12/31 05:14:10;;;;;;;9.68;2.17;;;14.60;76.30;;;;;;4873635;29;20049;-77
2021/12/31 05:16:36;;;;;;;7.97;1.80;;;14.70;76.20;;;;;;4864209;29;20058;-77
2021/12/31 05:19:06;;;;;;;8.13;1.90;;;14.70;76.20;;;;;;4877997;29;20128;-76
2021/12/31 05:21:32;;;;;;;7.60;2.33;;;14.60;76.10;;;;;;4882264;29;20053;-77
2021/12/31 05:23:58;;;;;;;7.50;2.05;;;14.70;76.10;;;;;;4874783;29;20060;-74
2021/12/31 05:26:24;;;;;;;7.47;2.05;;;14.70;76.10;;;;;;4863147;29;20423;-74
2021/12/31 05:28:50;;;;;;;7.65;2.05;;;14.70;75.80;;;;;;4867507;29;20041;-74
2021/12/31 05:31:16;;;;;;;8.20;1.60;;;14.70;75.40;;;;;;4854625;29;20056;-79
2021/12/31 05:33:42;;;;;;;5.80;1.70;;;14.80;75.20;;;;;;4863295;29;20066;-76
2021/12/31 05:36:08;;;;;;;7.32;2.10;;;14.80;74.90;;;;;;4880540;29;20044;-75
2021/12/31 05:38:34;;;;;;;5.15;1.75;;;14.90;74.70;;;;;;4881998;29;20053;-78
2021/12/31 05:41:00;;;;;;;5.20;1.85;;;14.90;74.50;;;;;;4850127;29;20052;-82
2021/12/31 05:43:26;;;;;;;7.20;1.80;;;14.90;74.30;;;;;;4881716;29;20446;-82
2021/12/31 05:45:52;;;;;;;4.72;1.50;;;14.90;74.40;;;;;;4881615;29;20041;-78
2021/12/31 05:48:18;;;;;;;5.47;1.98;;;14.90;74.30;;;;;;4848288;29;20398;-75
2021/12/31 05:50:43;;;;;;;6.80;1.50;;;14.80;74.30;;;;;;4866492;29;20103;-73
2021/12/31 05:53:09;;;;;;;6.32;2.45;;;14.80;74.60;;;;;;4870343;29;20450;-77
2021/12/31 05:55:35;;;;;;;6.32;2.53;;;14.90;75.20;;;;;;4856390;29;20529;-76
2021/12/31 05:58:02;;;;;;;8.00;2.17;;;14.90;75.50;;;;;;4874941;29;20037;-77
2021/12/31 06:00:28;;;;;;;9.30;1.98;;;15.10;75.40;;;;;;4845795;29;20087;-73
2021/12/31 06:03:01;;;;;;;6.40;2.10;;;15.30;75.00;;;;;;4862475;29;20053;-82
2021/12/31 06:05:27;;;;;;;9.80;1.98;;;15.50;75.10;;;;;;4846000;29;20057;-74
2021/12/31 06:07:55;;;;;;;7.75;1.88;;;15.70;74.40;;;;;;4862635;29;20037;-77
2021/12/31 06:10:27;;;;;;;10.95;2.90;;;15.90;74.00;;;;;;4862266;29;20462;-76
2021/12/31 06:12:58;;;;;;;9.10;2.22;;;16.00;74.10;;;;;;4830940;29;20159;-79
2021/12/31 06:15:25;;;;;;;12.65;2.22;;;16.20;73.80;;;;;;4862002;29;20055;-78
2021/12/31 06:17:51;;;;;;;8.10;1.67;;;16.20;73.70;;;;;;4830742;29;20145;-75
2021/12/31 06:20:17;;;;;;;12.05;2.28;;;16.30;74.30;;;;;;4845579;29;20080;-77
2021/12/31 06:22:42;;;;;;;9.48;2.28;;;16.40;74.10;;;;;;4830857;29;20509;-74
2021/12/31 06:25:11;;;;;;;10.30;2.65;;;16.40;74.00;;;;;;4831074;29;20526;-81
2021/12/31 06:27:38;;;;;;;12.85;1.85;;;16.40;73.60;;;;;;4845708;29;20228;-78
2021/12/31 06:30:05;;;;;;;10.07;2.95;;;16.40;73.50;;;;;;4845937;29;20139;-79
2021/12/31 06:32:31;;;;;;;9.45;1.88;;;16.40;73.30;;;;;;4862300;29;20045;-79
2021/12/31 06:34:57;;;;;;;10.32;2.33;;;16.40;73.50;;;;;;4862102;29;20366;-78
2021/12/31 06:37:23;;;;;;;7.97;1.95;;;16.30;73.60;;;;;;4861733;29;20045;-78
2021/12/31 06:39:49;;;;;;;8.25;2.30;;;16.30;74.50;;;;;;4830888;29;20110;-76
2021/12/31 06:42:15;;;;;;;11.10;3.10;;;16.40;74.60;;;;;;4861903;29;20096;-78
2021/12/31 06:44:40;;;;;;;9.40;2.10;;;16.40;74.40;;;;;;4845975;29;20133;-77
2021/12/31 06:47:07;;;;;;;8.43;2.28;;;16.40;74.10;;;;;;4858837;29;20374;-77
2021/12/31 06:49:33;;;;;;;14.73;2.55;;;16.40;73.90;;;;;;4852122;29;20049;-77
2021/12/31 06:51:59;;;;;;;10.63;2.20;;;16.40;74.10;;;;;;4836911;29;20408;-75
2021/12/31 06:54:24;;;;;;;15.13;2.45;;;16.40;73.40;;;;;;4837007;29;20057;-77
2021/12/31 06:56:51;;;;;;;14.40;2.20;;;16.50;74.10;;;;;;4839601;29;20500;-77
2021/12/31 06:59:17;;;;;;;10.05;2.20;;;16.60;74.30;;;;;;4846616;29;20077;-77
2021/12/31 07:01:43;;;;;;;10.50;2.63;;;16.60;74.40;;;;;;4842303;29;20077;-79
2021/12/31 07:04:10;;;;;;;14.18;2.17;;;16.70;73.90;;;;;;4834157;29;20057;-76
2021/12/31 07:06:35;;;;;;;12.18;2.22;;;16.90;73.70;;;;;;4835653;29;20058;-76
2021/12/31 07:09:01;;;;;;;12.45;1.90;;;16.90;73.40;;;;;;4856900;29;20112;-75
2021/12/31 07:11:27;;;;;;;8.88;1.98;;;17.00;73.70;;;;;;4830510;29;20053;-74
2021/12/31 07:13:53;;;;;;;18.23;2.40;;;17.00;73.60;;;;;;4840954;29;20371;-73
2021/12/31 07:16:18;;;;;;;10.27;1.65;;;17.00;73.10;;;;;;4851377;29;20525;-74
2021/12/31 07:18:44;;;;;;;14.85;2.60;;;17.10;72.80;;;;;;4834226;29;20478;-74
2021/12/31 07:21:10;;;;;;;13.90;1.98;;;17.00;72.90;;;;;;4841674;29;20064;-74
2021/12/31 07:23:38;;;;;;;11.45;2.33;;;17.00;72.90;;;;;;4846307;29;20462;-75
2021/12/31 07:26:10;;;;;;;10.88;1.85;;;17.00;73.30;;;;;;4839355;29;20424;-74
2021/12/31 07:28:39;;;;;;;14.05;2.15;;;17.00;73.20;;;;;;4853825;29;20087;-77
2021/12/31 07:31:06;;;;;;;12.18;2.42;;;17.00;73.10;;;;;;4849794;29;20077;-75
2021/12/31 07:33:32;;;;;;;10.38;2.50;;;16.90;73.20;;;;;;4845077;29;20576;-76
2021/12/31 07:36:00;;;;;;;7.82;1.60;;;16.90;73.20;;;;;;4851936;29;20124;-75
2021/12/31 07:38:35;;;;;;;12.15;2.08;;;16.90;73.00;;;;;;4855963;29;20054;-75
2021/12/31 07:41:02;;;;;;;10.05;2.10;;;16.80;72.80;;;;;;4843534;29;20057;-75
2021/12/31 07:43:28;;;;;;;7.13;1.73;;;16.80;73.00;;;;;;4849624;29;20064;-75
2021/12/31 07:45:54;;;;;;;8.27;2.10;;;16.70;73.00;;;;;;4859945;29;20042;-77
2021/12/31 07:48:21;;;;;;;9.15;2.20;;;16.70;73.00;;;;;;4850098;29;20084;-76
2021/12/31 07:50:47;;;;;;;10.90;2.25;;;16.70;73.00;;;;;;4853100;29;20065;-76
2021/12/31 07:53:13;;;;;;;10.20;2.03;;;16.70;72.90;;;;;;4879715;29;20060;-75
2021/12/31 07:55:39;;;;;;;11.90;2.05;;;16.70;73.20;;;;;;4883014;29;20372;-74
2021/12/31 07:58:05;;;;;;;10.45;1.88;;;16.80;73.30;;;;;;4883144;29;20045;-74
2021/12/31 08:00:32;;;;;;;9.15;1.95;;;16.80;73.50;;;;;;4882998;29;20425;-74
2021/12/31 08:02:58;;;;;;;7.35;1.90;;;16.80;73.40;;;;;;4866758;29;20097;-75
2021/12/31 08:05:26;;;;;;;13.35;2.45;;;16.80;72.70;;;;;;4882773;29;20053;-75
2021/12/31 08:07:52;;;;;;;7.47;1.83;;;16.80;72.50;;;;;;4882873;29;20456;-74
2021/12/31 08:10:19;;;;;;;9.70;2.00;;;16.70;72.50;;;;;;4882150;29;20453;-74
2021/12/31 08:12:45;;;;;;;12.63;1.80;;;16.70;72.10;;;;;;4882809;29;20053;-74
2021/12/31 08:15:11;;;;;;;7.10;2.15;;;16.60;72.10;;;;;;4865500;29;20113;-77
2021/12/31 08:17:37;;;;;;;12.02;2.13;;;16.40;72.20;;;;;;4882500;29;20056;-76
2021/12/31 08:20:03;;;;;;;9.70;1.80;;;16.50;72.60;;;;;;4882821;29;20445;-75
2021/12/31 08:22:29;;;;;;;8.13;1.70;;;16.40;72.70;;;;;;4882493;29;20471;-75
2021/12/31 08:24:55;;;;;;;10.52;2.15;;;16.40;72.70;;;;;;4882750;29;20095;-75
2021/12/31 08:27:20;;;;;;;6.82;1.40;;;16.40;72.70;;;;;;4882764;29;20120;-74
2021/12/31 08:29:46;;;;;;;7.45;2.03;;;16.40;73.00;;;;;;4881462;29;20454;-75
2021/12/31 08:32:12;;;;;;;10.48;2.15;;;16.40;73.30;;;;;;4875758;29;20060;-74
2021/12/31 08:34:38;;;;;;;9.82;1.98;;;16.50;73.50;;;;;;4884025;29;20084;-75
2021/12/31 08:37:04;;;;;;;11.95;2.15;;;16.50;73.50;;;;;;4879747;29;20372;-77
2021/12/31 08:39:30;;;;;;;10.68;2.28;;;16.50;73.20;;;;;;4882420;29;20072;-75
2021/12/31 08:41:56;;;;;;;11.90;2.45;;;16.40;73.00;;;;;;4881477;29;20112;-77
2021/12/31 08:44:22;;;;;;;13.55;2.65;;;16.50;73.10;;;;;;4882225;29;20048;-75
2021/12/31 08:46:47;;;;;;;15.73;1.90;;;16.50;73.10;;;;;;4882132;29;20054;-76
2021/12/31 08:49:14;;;;;;;8.50;1.90;;;16.60;73.10;;;;;;4882145;29;20061;-76
2021/12/31 08:51:40;;;;;;;9.98;1.95;;;16.60;72.90;;;;;;4850087;29;20061;-76
2021/12/31 08:54:06;;;;;;;9.30;1.50;;;16.60;72.90;;;;;;4865624;29;20438;-75
2021/12/31 08:56:32;;;;;;;8.45;2.47;;;16.70;72.70;;;;;;4882246;29;20049;-76
2021/12/31 08:58:59;;;;;;;16.35;2.15;;;16.80;72.80;;;;;;4880855;29;20458;-77
2021/12/31 09:01:24;;;;;;;10.48;1.95;;;16.80;72.50;;;;;;4880531;29;20057;-76
2021/12/31 09:03:50;;;;;;;10.73;1.77;;;16.90;72.60;;;;;;4881531;29;20052;-78
2021/12/31 09:06:19;;;;;;;9.32;1.75;;;16.90;72.50;;;;;;4881768;29;20049;-79
2021/12/31 09:08:48;;;;;;;7.93;1.70;;;16.90;72.40;;;;;;4881987;29;20061;-80
2021/12/31 09:11:15;;;;;;;9.52;1.63;;;16.90;72.10;;;;;;4882032;29;20077;-78
2021/12/31 09:13:46;;;;;;;7.13;1.60;;;17.00;72.20;;;;;;4866317;29;20127;-79
2021/12/31 09:16:12;;;;;;;4.88;1.65;;;17.00;72.10;;;;;;4865587;29;20045;-79
2021/12/31 09:18:38;;;;;;;9.15;1.67;;;17.00;71.90;;;;;;4865544;29;20058;-79
2021/12/31 09:21:04;;;;;;;9.07;1.20;;;17.00;72.00;;;;;;4881680;29;20065;-78
2021/12/31 09:23:30;;;;;;;6.30;1.73;;;17.00;72.00;;;;;;4881575;29;20048;-79
2021/12/31 09:25:57;;;;;;;5.72;1.73;;;17.00;71.90;;;;;;4881741;29;20465;-77
2021/12/31 09:28:23;;;;;;;9.40;1.80;;;17.00;71.90;;;;;;4879664;29;20057;-80
2021/12/31 09:30:49;;;;;;;11.95;2.30;;;17.00;71.80;;;;;;4853303;29;20049;-76
2021/12/31 09:33:14;;;;;;;7.38;1.60;;;17.00;71.80;;;;;;4877316;29;20116;-76
2021/12/31 09:35:42;;;;;;;9.75;2.05;;;17.00;71.90;;;;;;4881053;29;20121;-76
2021/12/31 09:38:09;;;;;;;12.35;2.08;;;17.00;71.60;;;;;;4881161;29;20384;-76
2021/12/31 09:40:39;;;;;;;10.40;1.75;;;16.50;70.70;;;;;;4865034;29;20330;-78
2021/12/31 09:43:09;;;;;;;11.65;1.83;;;16.60;73.10;;;;;;4881380;29;20048;-79
2021/12/31 09:45:36;;;;;;;6.45;1.38;;;16.70;72.60;;;;;;4880999;29;20068;-76
2021/12/31 09:48:10;;;;;;;8.73;1.88;;;16.70;72.70;;;;;;4865369;29;20431;-78
2021/12/31 09:50:39;;;;;;;8.70;1.98;;;16.80;72.50;;;;;;4881601;29;20092;-78
2021/12/31 09:53:06;;;;;;;8.20;2.03;;;16.80;72.50;;;;;;4881535;29;20057;-77
2021/12/31 09:55:44;;;;;;;35.47;3.47;;;16.90;72.40;;;;;;4881782;29;20061;-78
2021/12/31 09:58:11;;;;;;;17.80;2.22;;;16.90;72.30;;;;;;4861664;29;20109;-77
2021/12/31 10:00:41;;;;;;;13.77;2.33;;;16.90;72.40;;;;;;4878211;29;20095;-77
2021/12/31 10:03:25;;;;;;;13.90;2.75;;;16.90;72.30;;;;;;4880939;29;20063;-77
2021/12/31 10:05:54;;;;;;;10.18;1.63;;;16.80;70.00;;;;;;4864514;29;20093;-74
2021/12/31 10:08:25;;;;;;;13.10;2.05;;;16.60;72.80;;;;;;4880143;29;20357;-76
2021/12/31 10:11:12;;;;;;;10.55;1.92;;;16.70;73.40;;;;;;4871492;29;20049;-80
2021/12/31 10:13:44;;;;;;;11.57;2.40;;;16.70;73.60;;;;;;4867224;29;20049;-76
2021/12/31 10:16:24;;;;;;;10.48;2.17;;;16.80;73.40;;;;;;4867789;29;20061;-75
2021/12/31 10:19:10;;;;;;;10.98;2.47;;;16.80;73.40;;;;;;4877848;29;20048;-78
2021/12/31 10:21:45;;;;;;;8.00;1.58;;;16.80;73.20;;;;;;4875662;29;20094;-74
2021/12/31 10:24:26;;;;;;;10.20;2.03;;;16.90;74.10;;;;;;4876187;29;20136;-75
2021/12/31 10:26:57;;;;;;;12.05;2.65;;;16.90;73.70;;;;;;4864670;29;20500;-75
2021/12/31 10:29:24;;;;;;;10.65;2.33;;;16.90;73.60;;;;;;4880113;29;20064;-74
2021/12/31 10:31:51;;;;;;;13.00;2.78;;;16.90;74.30;;;;;;4880487;29;20053;-74
2021/12/31 10:34:33;;;;;;;21.85;2.60;;;17.00;75.30;;;;;;4881274;29;20041;-76
2021/12/31 10:37:14;;;;;;;15.63;2.40;;;16.90;75.80;;;;;;4880134;29;20402;-76
2021/12/31 10:39:40;;;;;;;16.13;2.83;;;17.00;76.20;;;;;;4880952;29;20049;-75
2021/12/31 10:42:07;;;;;;;11.18;2.72;;;17.00;76.50;;;;;;4880439;29;20055;-76
2021/12/31 10:44:53;;;;;;;9.45;2.92;;;17.00;78.20;;;;;;4881326;29;20354;-77
2021/12/31 10:47:27;;;;;;;19.75;3.20;;;17.10;78.80;;;;;;4880626;29;20057;-75
2021/12/31 10:50:02;;;;;;;15.77;3.65;;;17.10;78.60;;;;;;4864147;29;20045;-76
2021/12/31 10:52:36;;;;;;;13.07;3.75;;;17.10;79.50;;;;;;4876704;29;20140;-72
2021/12/31 10:55:44;;;;;;;19.23;3.30;;;17.10;80.30;;;;;;4849117;29;20041;-71
2021/12/31 10:58:03;;;;;;;15.02;3.38;;;17.20;80.20;;;;;;4856629;29;20049;-77
2021/12/31 11:00:41;;;;;;;19.10;3.45;;;17.20;79.80;;;;;;4863849;29;20045;-77
2021/12/31 11:03:07;;;;;;;13.88;3.83;;;17.20;81.30;;;;;;4856874;29;20057;-74
2021/12/31 11:05:34;;;;;;;13.55;3.45;;;17.30;80.90;;;;;;4882071;29;20053;-73
2021/12/31 11:08:02;;;;;;;15.18;3.40;;;17.10;78.90;;;;;;4884574;29;20113;-76
2021/12/31 11:10:32;;;;;;;12.30;3.72;;;17.10;80.10;;;;;;4884675;29;20059;-75
2021/12/31 11:12:58;;;;;;;13.27;2.83;;;17.10;80.50;;;;;;4884775;29;20119;-74
2021/12/31 11:15:24;;;;;;;17.73;3.08;;;17.10;80.40;;;;;;4884239;29;20140;-76
2021/12/31 11:17:53;;;;;;;8.73;2.42;;;17.10;80.30;;;;;;4867933;29;20052;-74
2021/12/31 11:20:24;;;;;;;11.68;2.80;;;17.10;80.00;;;;;;4884344;29;20052;-77
2021/12/31 11:22:51;;;;;;;14.65;2.67;;;17.10;79.80;;;;;;4867728;29;20428;-77
2021/12/31 11:25:17;;;;;;;12.20;3.08;;;17.10;79.20;;;;;;4867496;29;20465;-77
2021/12/31 11:27:45;;;;;;;9.68;2.85;;;17.10;78.80;;;;;;4883870;29;20049;-71
2021/12/31 11:30:33;;;;;;;9.80;2.78;;;17.10;78.60;;;;;;4869518;29;20075;-76
2021/12/31 11:33:00;;;;;;;8.82;2.47;;;17.10;78.20;;;;;;4870957;29;20053;-74
2021/12/31 11:36:04;;;;;;;9.15;2.20;;;17.10;78.30;;;;;;4873173;29;20061;-75
2021/12/31 11:38:30;;;;;;;;;;;17.10;77.90;;;;;;4865410;29;20072;-74
2021/12/31 11:41:08;;;;;;;9.82;2.72;;;17.10;78.00;;;;;;4852335;29;19924;-75
2021/12/31 11:43:37;;;;;;;9.18;2.55;;;17.00;77.50;;;;;;4881873;29;20372;-73
2021/12/31 11:46:12;;;;;;;9.20;2.58;;;17.10;77.50;;;;;;4883701;29;20057;-75
2021/12/31 11:51:18;;;;;;;7.97;2.38;;;17.10;77.50;;;;;;4883327;29;20061;-75
2021/12/31 11:53:56;;;;;;;9.15;2.50;;;17.10;76.60;;;;;;4883773;29;20108;-74
2021/12/31 11:56:34;;;;;;;9.43;2.33;;;17.10;76.10;;;;;;4884333;29;20068;-75
2021/12/31 11:59:09;;;;;;;11.95;2.67;;;17.10;76.10;;;;;;4867039;29;20053;-75
2021/12/31 12:01:46;;;;;;;6.78;2.20;;;17.10;76.10;;;;;;4864539;29;20066;-75
2021/12/31 12:04:25;;;;;;;9.35;2.33;;;17.10;76.30;;;;;;4865044;29;20061;-75
2021/12/31 12:07:01;;;;;;;15.25;3.03;;;17.10;76.20;;;;;;4878116;29;20393;-76
2021/12/31 12:09:36;;;;;;;9.10;2.60;;;17.00;76.20;;;;;;4883743;29;20045;-77
2021/12/31 12:12:07;;;;;;;8.32;2.30;;;17.00;76.30;;;;;;4883086;29;20121;-74
2021/12/31 12:14:45;;;;;;;12.65;2.50;;;17.10;76.40;;;;;;4851327;29;20053;-75
2021/12/31 12:17:12;;;;;;;6.97;1.77;;;17.00;76.20;;;;;;4881231;29;20063;-77
2021/12/31 12:20:08;;;;;;;8.75;2.22;;;17.00;76.10;;;;;;4895134;29;20112;-77
2021/12/31 12:22:39;;;;;;;9.50;2.03;;;17.10;76.00;;;;;;4878543;29;20094;-74
2021/12/31 12:25:22;;;;;;;12.18;2.67;;;17.10;76.00;;;;;;4883171;29;20084;-72
2021/12/31 12:28:01;;;;;;;9.77;2.03;;;17.10;75.90;;;;;;4859993;29;20509;-77
2021/12/31 12:30:27;;;;;;;10.30;2.58;;;17.00;75.90;;;;;;4881595;29;20293;-75
2021/12/31 12:35:39;;;;;;;;;;;17.10;75.90;;;;;;4869829;29;20057;-75
2021/12/31 12:38:16;;;;;;;11.07;1.70;;;17.10;75.70;;;;;;4873511;29;19935;-75
2021/12/31 12:40:59;;;;;;;8.75;1.52;;;17.10;75.70;;;;;;4877482;29;20105;-76
2021/12/31 12:43:29;;;;;;;11.98;2.17;;;17.00;75.70;;;;;;4867706;29;20052;-75
2021/12/31 12:46:03;;;;;;;7.07;1.88;;;17.00;75.70;;;;;;4882205;29;20045;-76
2021/12/31 12:48:37;;;;;;;5.25;1.65;;;17.10;75.60;;;;;;4865679;29;20056;-76
2021/12/31 12:51:05;;;;;;;5.60;1.65;;;17.10;75.60;;;;;;4881994;29;20087;-75
2021/12/31 12:53:36;;;;;;;11.10;1.80;;;17.10;75.50;;;;;;4882185;29;20053;-74
2021/12/31 12:56:05;;;;;;;9.32;1.70;;;17.10;75.40;;;;;;4881659;29;20057;-72